VOZ423 YSSY-YMML
Flight info
| Callsign | VOZ423 |
|---|---|
| Flight time | 1h 9m |
| Altitude | 36000 |
| Route | WOL H65 LEECE Q29 ML |
| Aircraft | B738/M-SDE2E3FGHIRWXY/LB1 |
Departure
| Time | 2026-04-20 03:00 |
|---|---|
| Airport | Sydney Kingsford Smith International Airport (YSSY) |
Arrival
| Time | 2026-04-20 04:10 |
|---|---|
| Airport | Melbourne Airport (YMML) |
| Time | Latitude | Longitude | Altitude | Speed | Heading |
|---|---|---|---|---|---|
| 2026-04-20 02:26 | -33.93525 | 151.17781 | 29 ft | 0 kts | 279° |
| 2026-04-20 02:47 | -33.93526 | 151.17788 | 29 ft | 2 kts | 277° |
| 2026-04-20 02:47 | -33.93527 | 151.17811 | 29 ft | 3 kts | 258° |
| 2026-04-20 02:48 | -33.93521 | 151.17832 | 30 ft | 3 kts | 223° |
| 2026-04-20 02:48 | -33.93508 | 151.17842 | 29 ft | 2 kts | 191° |
| 2026-04-20 02:48 | -33.93505 | 151.17842 | 30 ft | 1 kts | 190° |
| 2026-04-20 02:52 | -33.93518 | 151.17840 | 30 ft | 2 kts | 189° |
| 2026-04-20 02:52 | -33.93544 | 151.17834 | 30 ft | 5 kts | 189° |
| 2026-04-20 02:53 | -33.93575 | 151.17828 | 30 ft | 4 kts | 189° |
| 2026-04-20 02:53 | -33.93610 | 151.17821 | 30 ft | 7 kts | 189° |
| 2026-04-20 02:53 | -33.93657 | 151.17811 | 29 ft | 7 kts | 189° |
| 2026-04-20 02:53 | -33.93703 | 151.17801 | 29 ft | 7 kts | 190° |
| 2026-04-20 02:54 | -33.93758 | 151.17790 | 29 ft | 11 kts | 190° |
| 2026-04-20 02:54 | -33.93816 | 151.17777 | 20 ft | 8 kts | 190° |
| 2026-04-20 02:54 | -33.93850 | 151.17741 | 19 ft | 6 kts | 245° |
| 2026-04-20 02:54 | -33.93853 | 151.17730 | 19 ft | 0 kts | 250° |
| 2026-04-20 02:55 | -33.93856 | 151.17721 | 21 ft | 2 kts | 251° |
| 2026-04-20 02:55 | -33.93861 | 151.17701 | 18 ft | 3 kts | 253° |
| 2026-04-20 02:55 | -33.93865 | 151.17683 | 18 ft | 0 kts | 253° |
| 2026-04-20 02:55 | -33.93865 | 151.17682 | 18 ft | 0 kts | 253° |
| 2026-04-20 02:56 | -33.93867 | 151.17678 | 18 ft | 1 kts | 253° |
| 2026-04-20 02:56 | -33.93867 | 151.17674 | 18 ft | 0 kts | 253° |
| 2026-04-20 02:56 | -33.93868 | 151.17670 | 20 ft | 0 kts | 253° |
| 2026-04-20 02:56 | -33.93870 | 151.17665 | 19 ft | 4 kts | 253° |
| 2026-04-20 02:57 | -33.93882 | 151.17612 | 18 ft | 7 kts | 254° |
| 2026-04-20 02:57 | -33.93892 | 151.17569 | 18 ft | 0 kts | 253° |
| 2026-04-20 02:58 | -33.93896 | 151.17554 | 18 ft | 6 kts | 253° |
| 2026-04-20 02:58 | -33.93914 | 151.17477 | 20 ft | 11 kts | 254° |
| 2026-04-20 02:58 | -33.93937 | 151.17427 | 17 ft | 5 kts | 204° |
| 2026-04-20 02:59 | -33.93969 | 151.17428 | 19 ft | 0 kts | 168° |
| 2026-04-20 02:59 | -33.93991 | 151.17434 | 17 ft | 18 kts | 167° |
| 2026-04-20 02:59 | -33.94336 | 151.17523 | 26 ft | 83 kts | 168° |
| 2026-04-20 02:59 | -33.95091 | 151.17717 | 19 ft | 136 kts | 169° |
| 2026-04-20 03:00 | -33.96093 | 151.17998 | 456 ft | 142 kts | 168° |
| 2026-04-20 03:00 | -33.96990 | 151.18210 | 1325 ft | 133 kts | 179° |
| 2026-04-20 03:00 | -33.97950 | 151.18125 | 1839 ft | 141 kts | 186° |
| 2026-04-20 03:00 | -33.98932 | 151.18000 | 2473 ft | 146 kts | 184° |
| 2026-04-20 03:01 | -34.00015 | 151.17870 | 2871 ft | 168 kts | 185° |
| 2026-04-20 03:01 | -34.01229 | 151.17705 | 3277 ft | 185 kts | 186° |
| 2026-04-20 03:01 | -34.02573 | 151.17516 | 3586 ft | 201 kts | 183° |
| 2026-04-20 03:01 | -34.03944 | 151.17715 | 4148 ft | 205 kts | 166° |
| 2026-04-20 03:02 | -34.05374 | 151.18252 | 4386 ft | 229 kts | 164° |
| 2026-04-20 03:02 | -34.06959 | 151.18846 | 4806 ft | 245 kts | 165° |
| 2026-04-20 03:02 | -34.08611 | 151.19435 | 5555 ft | 248 kts | 165° |
| 2026-04-20 03:02 | -34.10285 | 151.20013 | 6320 ft | 251 kts | 166° |
| 2026-04-20 03:03 | -34.11989 | 151.20597 | 7014 ft | 257 kts | 166° |
| 2026-04-20 03:03 | -34.13729 | 151.21183 | 7770 ft | 259 kts | 166° |
| 2026-04-20 03:03 | -34.15467 | 151.21765 | 8595 ft | 260 kts | 166° |
| 2026-04-20 03:03 | -34.17225 | 151.22352 | 9357 ft | 265 kts | 166° |
| 2026-04-20 03:04 | -34.19056 | 151.22608 | 10098 ft | 268 kts | 188° |
| 2026-04-20 03:04 | -34.20858 | 151.21866 | 10579 ft | 284 kts | 209° |
| 2026-04-20 03:04 | -34.22400 | 151.20274 | 11103 ft | 299 kts | 226° |
| 2026-04-20 03:04 | -34.23746 | 151.18362 | 11822 ft | 304 kts | 227° |
| 2026-04-20 03:05 | -34.25112 | 151.16397 | 12635 ft | 307 kts | 227° |
| 2026-04-20 03:05 | -34.26499 | 151.14415 | 13417 ft | 311 kts | 226° |
| 2026-04-20 03:05 | -34.27908 | 151.12414 | 14233 ft | 315 kts | 226° |
| 2026-04-20 03:05 | -34.29341 | 151.10390 | 14967 ft | 319 kts | 226° |
| 2026-04-20 03:06 | -34.30790 | 151.08345 | 15765 ft | 321 kts | 226° |
| 2026-04-20 03:06 | -34.32252 | 151.06283 | 16562 ft | 324 kts | 227° |
| 2026-04-20 03:06 | -34.33727 | 151.04203 | 17338 ft | 327 kts | 227° |
| 2026-04-20 03:06 | -34.35223 | 151.02092 | 18053 ft | 333 kts | 227° |
| 2026-04-20 03:07 | -34.36746 | 150.99942 | 18762 ft | 337 kts | 227° |
| 2026-04-20 03:07 | -34.38372 | 150.97855 | 19213 ft | 348 kts | 221° |
| 2026-04-20 03:07 | -34.40215 | 150.95838 | 19380 ft | 365 kts | 219° |
| 2026-04-20 03:07 | -34.42165 | 150.93795 | 19793 ft | 374 kts | 219° |
| 2026-04-20 03:08 | -34.44127 | 150.91734 | 20398 ft | 378 kts | 219° |
| 2026-04-20 03:08 | -34.46102 | 150.89631 | 21081 ft | 379 kts | 219° |
| 2026-04-20 03:08 | -34.48083 | 150.87498 | 21743 ft | 381 kts | 219° |
| 2026-04-20 03:08 | -34.50069 | 150.85344 | 22366 ft | 383 kts | 219° |
| 2026-04-20 03:09 | -34.52060 | 150.83179 | 22970 ft | 386 kts | 219° |
| 2026-04-20 03:09 | -34.54066 | 150.80995 | 23572 ft | 389 kts | 219° |
| 2026-04-20 03:09 | -34.56035 | 150.78792 | 24080 ft | 393 kts | 223° |
| 2026-04-20 03:09 | -34.57779 | 150.76203 | 24567 ft | 398 kts | 230° |
| 2026-04-20 03:10 | -34.59412 | 150.73467 | 25013 ft | 401 kts | 231° |
| 2026-04-20 03:10 | -34.61025 | 150.70692 | 25477 ft | 404 kts | 231° |
| 2026-04-20 03:10 | -34.62648 | 150.67900 | 25920 ft | 406 kts | 231° |
| 2026-04-20 03:10 | -34.64289 | 150.65101 | 26372 ft | 408 kts | 230° |
| 2026-04-20 03:11 | -34.65951 | 150.62293 | 26838 ft | 410 kts | 230° |
| 2026-04-20 03:11 | -34.67632 | 150.59473 | 27270 ft | 412 kts | 230° |
| 2026-04-20 03:11 | -34.69300 | 150.56685 | 27687 ft | 414 kts | 230° |
| 2026-04-20 03:11 | -34.71004 | 150.53840 | 28098 ft | 417 kts | 229° |
| 2026-04-20 03:12 | -34.72724 | 150.50971 | 28508 ft | 419 kts | 229° |
| 2026-04-20 03:12 | -34.74444 | 150.48101 | 28919 ft | 421 kts | 229° |
| 2026-04-20 03:12 | -34.76158 | 150.45239 | 29256 ft | 423 kts | 230° |
| 2026-04-20 03:12 | -34.77894 | 150.42335 | 29627 ft | 425 kts | 229° |
| 2026-04-20 03:13 | -34.79644 | 150.39408 | 30022 ft | 427 kts | 229° |
| 2026-04-20 03:13 | -34.81389 | 150.36481 | 30539 ft | 425 kts | 229° |
| 2026-04-20 03:13 | -34.83121 | 150.33574 | 31039 ft | 421 kts | 229° |
| 2026-04-20 03:13 | -34.84835 | 150.30695 | 31508 ft | 420 kts | 229° |
| 2026-04-20 03:14 | -34.86547 | 150.27819 | 31946 ft | 419 kts | 229° |
| 2026-04-20 03:14 | -34.88240 | 150.24972 | 32621 ft | 412 kts | 229° |
| 2026-04-20 03:14 | -34.89896 | 150.22185 | 32970 ft | 413 kts | 229° |
| 2026-04-20 03:14 | -34.91593 | 150.19333 | 33198 ft | 416 kts | 229° |
| 2026-04-20 03:15 | -34.93297 | 150.16465 | 33520 ft | 416 kts | 229° |
| 2026-04-20 03:15 | -34.94983 | 150.13620 | 34075 ft | 412 kts | 229° |
| 2026-04-20 03:15 | -34.96634 | 150.10830 | 34554 ft | 408 kts | 229° |
| 2026-04-20 03:15 | -34.98283 | 150.08042 | 35021 ft | 403 kts | 228° |
| 2026-04-20 03:16 | -34.99915 | 150.05283 | 35477 ft | 399 kts | 228° |
| 2026-04-20 03:16 | -35.01552 | 150.02519 | 35672 ft | 403 kts | 228° |
| 2026-04-20 03:16 | -35.03196 | 149.99740 | 35847 ft | 406 kts | 228° |
| 2026-04-20 03:16 | -35.04855 | 149.96932 | 36028 ft | 408 kts | 228° |
| 2026-04-20 03:17 | -35.06521 | 149.94109 | 36254 ft | 410 kts | 228° |
| 2026-04-20 03:17 | -35.09889 | 149.88407 | 36259 ft | 415 kts | 228° |
| 2026-04-20 03:18 | -35.13217 | 149.82756 | 36268 ft | 409 kts | 229° |
| 2026-04-20 03:18 | -35.16521 | 149.77137 | 36284 ft | 406 kts | 229° |
| 2026-04-20 03:19 | -35.19818 | 149.71525 | 36281 ft | 406 kts | 229° |
| 2026-04-20 03:19 | -35.23107 | 149.65918 | 36282 ft | 405 kts | 229° |
| 2026-04-20 03:20 | -35.26393 | 149.60309 | 36281 ft | 406 kts | 229° |
| 2026-04-20 03:20 | -35.29666 | 149.54710 | 36275 ft | 406 kts | 229° |
| 2026-04-20 03:21 | -35.32955 | 149.49075 | 36283 ft | 407 kts | 229° |
| 2026-04-20 03:21 | -35.36252 | 149.43417 | 36294 ft | 408 kts | 229° |
| 2026-04-20 03:22 | -35.39557 | 149.37737 | 36283 ft | 409 kts | 229° |
| 2026-04-20 03:22 | -35.42867 | 149.32037 | 36292 ft | 411 kts | 229° |
| 2026-04-20 03:23 | -35.46169 | 149.26343 | 36289 ft | 411 kts | 229° |
| 2026-04-20 03:23 | -35.49492 | 149.20603 | 36277 ft | 412 kts | 229° |
| 2026-04-20 03:24 | -35.52808 | 149.14864 | 36274 ft | 411 kts | 229° |
| 2026-04-20 03:24 | -35.56098 | 149.09162 | 36284 ft | 411 kts | 229° |
| 2026-04-20 03:25 | -35.59406 | 149.03420 | 36249 ft | 411 kts | 229° |
| 2026-04-20 03:25 | -35.62711 | 148.97672 | 36263 ft | 410 kts | 229° |
| 2026-04-20 03:26 | -35.66000 | 148.91943 | 36265 ft | 410 kts | 229° |
| 2026-04-20 03:26 | -35.69267 | 148.86245 | 36261 ft | 409 kts | 229° |
| 2026-04-20 03:27 | -35.72544 | 148.80517 | 36269 ft | 408 kts | 229° |
| 2026-04-20 03:27 | -35.75809 | 148.74802 | 36256 ft | 407 kts | 229° |
| 2026-04-20 03:28 | -35.79051 | 148.69120 | 36262 ft | 407 kts | 229° |
| 2026-04-20 03:28 | -35.83946 | 148.60528 | 36270 ft | 407 kts | 229° |
| 2026-04-20 03:29 | -35.87197 | 148.54799 | 36266 ft | 408 kts | 229° |
| 2026-04-20 03:29 | -35.90438 | 148.49062 | 36268 ft | 408 kts | 229° |
| 2026-04-20 03:30 | -35.93677 | 148.43303 | 36261 ft | 408 kts | 229° |
| 2026-04-20 03:30 | -35.96898 | 148.37566 | 36277 ft | 409 kts | 230° |
| 2026-04-20 03:31 | -36.00139 | 148.31783 | 36273 ft | 409 kts | 230° |
| 2026-04-20 03:31 | -36.03382 | 148.25989 | 36262 ft | 409 kts | 230° |
| 2026-04-20 03:32 | -36.06619 | 148.20195 | 36250 ft | 409 kts | 230° |
| 2026-04-20 03:32 | -36.09848 | 148.14409 | 36246 ft | 409 kts | 230° |
| 2026-04-20 03:33 | -36.13053 | 148.08659 | 36264 ft | 408 kts | 229° |
| 2026-04-20 03:33 | -36.16293 | 148.02863 | 36256 ft | 408 kts | 229° |
| 2026-04-20 03:34 | -36.18977 | 147.98054 | 36253 ft | 408 kts | 230° |
| 2026-04-20 03:34 | -36.22731 | 147.91315 | 36239 ft | 409 kts | 230° |
| 2026-04-20 03:35 | -36.25427 | 147.86464 | 36250 ft | 408 kts | 230° |
| 2026-04-20 03:35 | -36.28652 | 147.80652 | 36255 ft | 409 kts | 230° |
| 2026-04-20 03:36 | -36.31874 | 147.74839 | 36261 ft | 410 kts | 230° |
| 2026-04-20 03:36 | -36.35083 | 147.69036 | 36249 ft | 411 kts | 230° |
| 2026-04-20 03:37 | -36.38308 | 147.63183 | 36245 ft | 410 kts | 230° |
| 2026-04-20 03:37 | -36.41519 | 147.57345 | 36261 ft | 409 kts | 230° |
| 2026-04-20 03:38 | -36.44709 | 147.51535 | 36260 ft | 409 kts | 230° |
| 2026-04-20 03:38 | -36.47911 | 147.45695 | 36251 ft | 409 kts | 230° |
| 2026-04-20 03:39 | -36.51109 | 147.39852 | 36259 ft | 408 kts | 230° |
| 2026-04-20 03:39 | -36.54298 | 147.34015 | 36254 ft | 407 kts | 230° |
| 2026-04-20 03:40 | -36.57456 | 147.28225 | 36260 ft | 407 kts | 230° |
| 2026-04-20 03:40 | -36.60632 | 147.22391 | 36252 ft | 406 kts | 230° |
| 2026-04-20 03:41 | -36.63804 | 147.16556 | 36257 ft | 406 kts | 230° |
| 2026-04-20 03:41 | -36.66971 | 147.10719 | 36233 ft | 407 kts | 230° |
| 2026-04-20 03:42 | -36.68566 | 147.07778 | 35792 ft | 410 kts | 231° |
| 2026-04-20 03:42 | -36.70157 | 147.04839 | 35245 ft | 408 kts | 231° |
| 2026-04-20 03:42 | -36.71719 | 147.01951 | 34851 ft | 404 kts | 230° |
| 2026-04-20 03:42 | -36.73287 | 146.99055 | 34414 ft | 402 kts | 230° |
| 2026-04-20 03:43 | -36.74842 | 146.96181 | 33951 ft | 398 kts | 230° |
| 2026-04-20 03:43 | -36.76389 | 146.93319 | 33487 ft | 395 kts | 230° |
| 2026-04-20 03:43 | -36.77919 | 146.90488 | 33064 ft | 392 kts | 230° |
| 2026-04-20 03:43 | -36.79439 | 146.87672 | 32618 ft | 389 kts | 230° |
| 2026-04-20 03:44 | -36.80946 | 146.84879 | 32203 ft | 386 kts | 230° |
| 2026-04-20 03:44 | -36.82441 | 146.82105 | 31775 ft | 383 kts | 231° |
| 2026-04-20 03:44 | -36.83923 | 146.79353 | 31367 ft | 380 kts | 231° |
| 2026-04-20 03:44 | -36.85375 | 146.76653 | 31001 ft | 377 kts | 231° |
| 2026-04-20 03:45 | -36.86834 | 146.73941 | 30597 ft | 375 kts | 231° |
| 2026-04-20 03:45 | -36.88285 | 146.71240 | 30172 ft | 373 kts | 231° |
| 2026-04-20 03:45 | -36.89727 | 146.68553 | 29721 ft | 370 kts | 231° |
| 2026-04-20 03:45 | -36.91155 | 146.65891 | 29280 ft | 368 kts | 231° |
| 2026-04-20 03:46 | -36.92572 | 146.63247 | 28874 ft | 364 kts | 231° |
| 2026-04-20 03:46 | -36.93975 | 146.60628 | 28455 ft | 361 kts | 231° |
| 2026-04-20 03:46 | -36.95364 | 146.58030 | 28054 ft | 358 kts | 231° |
| 2026-04-20 03:46 | -36.96724 | 146.55487 | 27666 ft | 355 kts | 231° |
| 2026-04-20 03:47 | -36.98090 | 146.52930 | 27258 ft | 352 kts | 231° |
| 2026-04-20 03:47 | -36.99447 | 146.50389 | 26865 ft | 350 kts | 231° |
| 2026-04-20 03:47 | -37.00794 | 146.47864 | 26481 ft | 348 kts | 231° |
| 2026-04-20 03:47 | -37.02138 | 146.45345 | 26091 ft | 346 kts | 231° |
| 2026-04-20 03:48 | -37.03471 | 146.42841 | 25687 ft | 345 kts | 231° |
| 2026-04-20 03:48 | -37.04796 | 146.40353 | 25317 ft | 342 kts | 232° |
| 2026-04-20 03:48 | -37.06113 | 146.37877 | 24935 ft | 341 kts | 232° |
| 2026-04-20 03:48 | -37.07426 | 146.35408 | 24546 ft | 340 kts | 232° |
| 2026-04-20 03:49 | -37.08732 | 146.32947 | 24155 ft | 339 kts | 232° |
| 2026-04-20 03:49 | -37.10039 | 146.30479 | 23731 ft | 339 kts | 232° |
| 2026-04-20 03:49 | -37.11342 | 146.28018 | 23300 ft | 338 kts | 232° |
| 2026-04-20 03:49 | -37.12641 | 146.25559 | 22889 ft | 336 kts | 232° |
| 2026-04-20 03:50 | -37.13913 | 146.23151 | 22502 ft | 334 kts | 232° |
| 2026-04-20 03:50 | -37.15195 | 146.20722 | 22118 ft | 332 kts | 233° |
| 2026-04-20 03:50 | -37.16464 | 146.18317 | 21739 ft | 330 kts | 233° |
| 2026-04-20 03:50 | -37.17726 | 146.15923 | 21364 ft | 328 kts | 233° |
| 2026-04-20 03:51 | -37.18979 | 146.13544 | 20989 ft | 326 kts | 233° |
| 2026-04-20 03:51 | -37.20225 | 146.11178 | 20624 ft | 324 kts | 233° |
| 2026-04-20 03:51 | -37.21463 | 146.08825 | 20267 ft | 322 kts | 233° |
| 2026-04-20 03:51 | -37.22694 | 146.06483 | 19904 ft | 321 kts | 234° |
| 2026-04-20 03:52 | -37.23922 | 146.04145 | 19523 ft | 320 kts | 234° |
| 2026-04-20 03:52 | -37.25144 | 146.01817 | 19166 ft | 319 kts | 234° |
| 2026-04-20 03:52 | -37.26364 | 145.99490 | 18803 ft | 318 kts | 234° |
| 2026-04-20 03:52 | -37.27581 | 145.97171 | 18411 ft | 318 kts | 234° |
| 2026-04-20 03:53 | -37.28782 | 145.94877 | 18013 ft | 317 kts | 235° |
| 2026-04-20 03:53 | -37.29991 | 145.92570 | 17626 ft | 316 kts | 235° |
| 2026-04-20 03:53 | -37.31195 | 145.90271 | 17248 ft | 314 kts | 235° |
| 2026-04-20 03:53 | -37.32396 | 145.87984 | 16868 ft | 313 kts | 235° |
| 2026-04-20 03:54 | -37.33593 | 145.85708 | 16484 ft | 312 kts | 235° |
| 2026-04-20 03:54 | -37.34785 | 145.83439 | 16128 ft | 310 kts | 235° |
| 2026-04-20 03:54 | -37.35968 | 145.81184 | 15768 ft | 308 kts | 235° |
| 2026-04-20 03:54 | -37.37147 | 145.78936 | 15417 ft | 307 kts | 235° |
| 2026-04-20 03:55 | -37.38320 | 145.76698 | 15070 ft | 306 kts | 235° |
| 2026-04-20 03:55 | -37.39477 | 145.74488 | 14725 ft | 305 kts | 236° |
| 2026-04-20 03:55 | -37.40644 | 145.72258 | 14374 ft | 305 kts | 235° |
| 2026-04-20 03:55 | -37.41810 | 145.70029 | 14021 ft | 304 kts | 236° |
| 2026-04-20 03:56 | -37.42973 | 145.67803 | 13631 ft | 304 kts | 236° |
| 2026-04-20 03:56 | -37.44137 | 145.65573 | 13259 ft | 302 kts | 236° |
| 2026-04-20 03:56 | -37.44964 | 145.63155 | 12886 ft | 303 kts | 257° |
| 2026-04-20 03:56 | -37.45106 | 145.60512 | 12579 ft | 302 kts | 268° |
| 2026-04-20 03:57 | -37.45069 | 145.57870 | 12226 ft | 301 kts | 269° |
| 2026-04-20 03:57 | -37.45012 | 145.55237 | 11881 ft | 300 kts | 269° |
| 2026-04-20 03:57 | -37.44962 | 145.52648 | 11550 ft | 299 kts | 269° |
| 2026-04-20 03:57 | -37.44922 | 145.50034 | 11196 ft | 298 kts | 269° |
| 2026-04-20 03:58 | -37.44889 | 145.47432 | 10864 ft | 297 kts | 269° |
| 2026-04-20 03:58 | -37.44858 | 145.44832 | 10547 ft | 295 kts | 269° |
| 2026-04-20 03:58 | -37.44828 | 145.42275 | 10294 ft | 291 kts | 269° |
| 2026-04-20 03:58 | -37.44798 | 145.39735 | 9966 ft | 290 kts | 269° |
| 2026-04-20 03:59 | -37.44767 | 145.37191 | 9591 ft | 289 kts | 269° |
| 2026-04-20 03:59 | -37.44736 | 145.34663 | 9278 ft | 287 kts | 269° |
| 2026-04-20 03:59 | -37.44705 | 145.32153 | 8974 ft | 286 kts | 269° |
| 2026-04-20 03:59 | -37.44673 | 145.29663 | 8655 ft | 284 kts | 269° |
| 2026-04-20 04:00 | -37.44641 | 145.27181 | 8334 ft | 283 kts | 269° |
| 2026-04-20 04:00 | -37.44609 | 145.24715 | 8033 ft | 281 kts | 269° |
| 2026-04-20 04:00 | -37.44577 | 145.22260 | 7724 ft | 280 kts | 270° |
| 2026-04-20 04:00 | -37.44544 | 145.19851 | 7430 ft | 278 kts | 270° |
| 2026-04-20 04:01 | -37.44510 | 145.17417 | 7128 ft | 277 kts | 270° |
| 2026-04-20 04:01 | -37.44476 | 145.14995 | 6825 ft | 276 kts | 270° |
| 2026-04-20 04:01 | -37.44442 | 145.12592 | 6525 ft | 274 kts | 270° |
| 2026-04-20 04:01 | -37.44408 | 145.10211 | 6283 ft | 270 kts | 270° |
| 2026-04-20 04:02 | -37.44374 | 145.07848 | 5979 ft | 270 kts | 270° |
| 2026-04-20 04:02 | -37.44339 | 145.05518 | 5852 ft | 262 kts | 270° |
| 2026-04-20 04:02 | -37.44304 | 145.03259 | 5726 ft | 254 kts | 270° |
| 2026-04-20 04:02 | -37.44271 | 145.01070 | 5615 ft | 246 kts | 270° |
| 2026-04-20 04:03 | -37.44238 | 144.98921 | 5364 ft | 245 kts | 271° |
| 2026-04-20 04:03 | -37.44205 | 144.96812 | 5139 ft | 244 kts | 271° |
| 2026-04-20 04:03 | -37.44172 | 144.94671 | 4881 ft | 244 kts | 270° |
| 2026-04-20 04:03 | -37.44330 | 144.92603 | 4787 ft | 232 kts | 259° |
| 2026-04-20 04:04 | -37.44635 | 144.90660 | 4660 ft | 220 kts | 258° |
| 2026-04-20 04:04 | -37.44919 | 144.88827 | 4565 ft | 206 kts | 259° |
| 2026-04-20 04:04 | -37.45174 | 144.87108 | 4474 ft | 196 kts | 259° |
| 2026-04-20 04:04 | -37.45416 | 144.85431 | 4340 ft | 194 kts | 259° |
| 2026-04-20 04:05 | -37.45655 | 144.83770 | 4195 ft | 192 kts | 259° |
| 2026-04-20 04:05 | -37.45900 | 144.82116 | 3991 ft | 192 kts | 255° |
| 2026-04-20 04:05 | -37.46588 | 144.80766 | 3991 ft | 186 kts | 212° |
| 2026-04-20 04:05 | -37.47857 | 144.80445 | 3882 ft | 195 kts | 177° |
| 2026-04-20 04:06 | -37.49217 | 144.80558 | 3612 ft | 198 kts | 176° |
| 2026-04-20 04:06 | -37.50575 | 144.80740 | 3359 ft | 195 kts | 173° |
| 2026-04-20 04:06 | -37.51911 | 144.80975 | 3088 ft | 192 kts | 172° |
| 2026-04-20 04:06 | -37.53233 | 144.81223 | 2842 ft | 190 kts | 172° |
| 2026-04-20 04:07 | -37.54530 | 144.81468 | 2593 ft | 186 kts | 172° |
| 2026-04-20 04:07 | -37.55796 | 144.81706 | 2345 ft | 183 kts | 172° |
| 2026-04-20 04:07 | -37.57026 | 144.81936 | 2107 ft | 172 kts | 172° |
| 2026-04-20 04:07 | -37.58167 | 144.82151 | 1863 ft | 159 kts | 172° |
| 2026-04-20 04:08 | -37.59226 | 144.82349 | 1689 ft | 152 kts | 172° |
| 2026-04-20 04:08 | -37.60254 | 144.82541 | 1477 ft | 149 kts | 171° |
| 2026-04-20 04:08 | -37.61262 | 144.82731 | 1282 ft | 144 kts | 171° |
| 2026-04-20 04:08 | -37.62249 | 144.82915 | 1100 ft | 143 kts | 171° |
| 2026-04-20 04:09 | -37.63224 | 144.83104 | 905 ft | 143 kts | 169° |
| 2026-04-20 04:09 | -37.64190 | 144.83300 | 728 ft | 140 kts | 170° |
| 2026-04-20 04:09 | -37.65176 | 144.83472 | 534 ft | 142 kts | 171° |
| 2026-04-20 04:09 | -37.66122 | 144.83654 | 398 ft | 129 kts | 171° |
| 2026-04-20 04:10 | -37.66788 | 144.83767 | 387 ft | 43 kts | 171° |
| 2026-04-20 04:10 | -37.67001 | 144.83843 | 381 ft | 19 kts | 153° |
| 2026-04-20 04:10 | -37.67104 | 144.83931 | 376 ft | 15 kts | 142° |
| 2026-04-20 04:10 | -37.67158 | 144.83985 | 373 ft | 4 kts | 141° |
| 2026-04-20 04:11 | -37.67161 | 144.83988 | 373 ft | 0 kts | 141° |
| 2026-04-20 04:11 | -37.67162 | 144.83989 | 372 ft | 1 kts | 141° |
| 2026-04-20 04:11 | -37.67177 | 144.84004 | 372 ft | 4 kts | 141° |
| 2026-04-20 04:12 | -37.67206 | 144.84040 | 370 ft | 6 kts | 125° |
| 2026-04-20 04:12 | -37.67221 | 144.84094 | 369 ft | 8 kts | 97° |
| 2026-04-20 04:12 | -37.67220 | 144.84158 | 368 ft | 8 kts | 85° |
| 2026-04-20 04:12 | -37.67214 | 144.84220 | 367 ft | 5 kts | 84° |
| 2026-04-20 04:13 | -37.67210 | 144.84271 | 366 ft | 6 kts | 83° |
| 2026-04-20 04:13 | -37.67204 | 144.84328 | 368 ft | 7 kts | 83° |
| 2026-04-20 04:13 | -37.67199 | 144.84393 | 364 ft | 6 kts | 84° |
| 2026-04-20 04:13 | -37.67173 | 144.84445 | 365 ft | 8 kts | 35° |
| 2026-04-20 04:14 | -37.67127 | 144.84457 | 364 ft | 6 kts | 356° |
| 2026-04-20 04:14 | -37.67083 | 144.84449 | 369 ft | 6 kts | 350° |
| 2026-04-20 04:14 | -37.67043 | 144.84449 | 368 ft | 6 kts | 19° |
| 2026-04-20 04:14 | -37.67017 | 144.84492 | 364 ft | 8 kts | 77° |
| 2026-04-20 04:15 | -37.67002 | 144.84563 | 362 ft | 8 kts | 64° |
| 2026-04-20 04:15 | -37.66986 | 144.84628 | 360 ft | 6 kts | 95° |
| 2026-04-20 04:15 | -37.66999 | 144.84658 | 361 ft | 3 kts | 149° |
| 2026-04-20 04:15 | -37.67012 | 144.84663 | 355 ft | 1 kts | 165° |
| 2026-04-20 04:16 | -37.67021 | 144.84665 | 360 ft | 1 kts | 168° |
| 2026-04-20 04:16 | -37.67033 | 144.84668 | 355 ft | 2 kts | 171° |
| 2026-04-20 04:16 | -37.67042 | 144.84670 | 358 ft | 1 kts | 171° |
| 2026-04-20 04:16 | -37.67050 | 144.84671 | 355 ft | 1 kts | 171° |
| 2026-04-20 04:17 | -37.67052 | 144.84672 | 353 ft | 0 kts | 171° |
| 2026-04-20 04:17 | -37.67054 | 144.84672 | 353 ft | 0 kts | 171° |